Terminal Aerodrome Forecast
Issued by NWS Jackson, KY

Home | Current Version | Previous Version | Text Only | Print | Product List | Glossary On
Versions: 1 2 3 4 5 6 7 8 9 10 11 12 13 14
068
FTUS43 KJKL 162320
TAFJKL
TAF
KJKL 162320Z 1700/1724 26005KT P6SM VCSH BKN040
     FM170200 VRB04KT P6SM SCT035
     FM170500 VRB04KT P6SM VCSH BKN035
     FM171900 29006KT P6SM SCT035=

USA.gov is the U.S. government's official web portal to all federal, state and local government web resources and services.